Time;durP1;ratioP1;P1;durP2;ratioP2;P2;SDS_P1;SDS_P2;PMS_P1;PMS_P2;Temp;Humidity;BMP_temperature;BMP_pressure;BME280_temperature;BME280_humidity;BME280_pressure;Samples;Min_cycle;Max_cycle;Signal;HPM_P1;HPM_P2
2023/07/22 00:01:51;;;;;;;0.10;0.10;;;;;;;19.35;60.23;99261.94;4302392;33;20147;-95
2023/07/22 00:04:16;;;;;;;0.37;0.37;;;;;;;19.38;60.23;99266.97;4306771;33;20161;-94
2023/07/22 00:06:42;;;;;;;1.25;0.80;;;;;;;19.41;60.24;99267.59;4294946;33;20538;-95
2023/07/22 00:09:09;;;;;;;0.00;0.00;;;;;;;19.67;60.24;99257.72;4294971;33;20375;-94
2023/07/22 00:11:35;;;;;;;0.00;0.00;;;;;;;19.36;60.23;99263.63;4294957;33;20171;-94
2023/07/22 00:14:01;;;;;;;0.75;0.75;;;;;;;19.40;60.23;99271.22;4294793;33;20084;-94
2023/07/22 00:16:29;;;;;;;0.22;0.22;;;;;;;19.36;60.23;99282.94;4294435;33;20108;-95
2023/07/22 00:18:55;;;;;;;0.65;0.62;;;;;;;19.48;60.24;99286.44;4306696;33;20111;-94
2023/07/22 00:21:20;;;;;;;0.47;0.47;;;;;;;19.19;60.22;99294.78;4308280;33;20150;-94
2023/07/22 00:23:46;;;;;;;0.20;0.20;;;;;;;19.15;60.21;99292.44;4296356;33;20100;-94
2023/07/22 00:26:11;;;;;;;1.27;0.55;;;;;;;19.19;60.22;99284.22;4296197;33;20695;-95
2023/07/22 00:28:37;;;;;;;0.20;0.20;;;;;;;19.17;60.22;99270.31;4296559;33;20111;-95
2023/07/22 00:31:03;;;;;;;0.28;0.28;;;;;;;19.06;60.21;99274.69;4296283;33;20076;-94
2023/07/22 00:33:28;;;;;;;0.15;0.10;;;;;;;19.09;60.22;99272.66;4296125;33;20114;-95
2023/07/22 00:35:54;;;;;;;0.00;0.00;;;;;;;19.19;60.22;99268.38;4296021;33;20115;-95
2023/07/22 00:38:19;;;;;;;0.30;0.30;;;;;;;19.11;60.22;99267.25;4296096;33;20112;-94
2023/07/22 00:40:45;;;;;;;0.00;0.00;;;;;;;19.02;60.21;99263.53;4296525;33;20181;-95
2023/07/22 00:43:10;;;;;;;0.10;0.10;;;;;;;19.01;60.22;99256.56;4296287;33;20096;-94
2023/07/22 00:45:36;;;;;;;0.05;0.05;;;;;;;19.12;60.21;99253.94;4296333;33;20159;-94
2023/07/22 00:48:02;;;;;;;0.00;0.00;;;;;;;19.06;60.21;99262.34;4284265;33;20175;-95
2023/07/22 00:50:28;;;;;;;0.30;0.30;;;;;;;19.04;60.21;99271.31;4296175;33;20116;-93
2023/07/22 00:52:53;;;;;;;0.10;0.10;;;;;;;19.04;60.21;99285.34;4296043;33;20408;-95
2023/07/22 00:55:19;;;;;;;0.55;0.55;;;;;;;19.27;60.23;99289.75;4296155;33;20163;-95
2023/07/22 00:57:45;;;;;;;0.47;0.32;;;;;;;19.01;60.22;99291.69;4296369;33;20462;-94
2023/07/22 01:00:12;;;;;;;2.53;1.70;;;;;;;19.12;60.21;99308.50;4295782;33;20114;-94
2023/07/22 01:02:40;;;;;;;0.00;0.00;;;;;;;18.96;60.21;99309.66;4296514;33;20108;-93
2023/07/22 01:05:05;;;;;;;0.00;0.00;;;;;;;18.92;60.21;99313.47;4296486;33;20179;-94
2023/07/22 01:07:31;;;;;;;1.37;0.47;;;;;;;18.99;60.21;99317.34;4296165;33;20151;-95
2023/07/22 01:09:58;;;;;;;0.10;0.10;;;;;;;18.94;60.21;99316.84;4296083;33;20092;-95
2023/07/22 01:12:23;;;;;;;0.08;0.08;;;;;;;19.25;60.23;99318.06;4296274;33;20108;-94
2023/07/22 01:14:48;;;;;;;0.00;0.00;;;;;;;19.05;60.21;99318.69;4283972;33;20128;-95
2023/07/22 01:17:14;;;;;;;0.10;0.10;;;;;;;19.09;60.22;99314.87;4295950;33;20099;-95
2023/07/22 01:19:39;;;;;;;0.32;0.32;;;;;;;18.96;60.21;99314.09;4295774;33;20104;-95
2023/07/22 01:22:07;;;;;;;0.10;0.10;;;;;;;19.09;60.23;99321.94;4295854;33;20104;-94
2023/07/22 01:24:33;;;;;;;0.10;0.10;;;;;;;18.99;60.21;99325.25;4296176;33;20130;-95
2023/07/22 01:26:58;;;;;;;0.05;0.05;;;;;;;19.16;60.22;99321.34;4300589;33;20072;-95
2023/07/22 01:29:24;;;;;;;0.10;0.10;;;;;;;19.06;60.21;99330.91;4297053;33;20167;-94
2023/07/22 01:31:52;;;;;;;0.00;0.00;;;;;;;19.06;60.21;99327.44;4300565;33;20127;-95
2023/07/22 01:34:17;;;;;;;0.00;0.00;;;;;;;19.03;60.21;99331.16;4295830;33;20130;-95
2023/07/22 01:36:44;;;;;;;0.75;0.47;;;;;;;19.04;60.21;99330.19;4295792;33;20108;-95
2023/07/22 01:39:13;;;;;;;0.00;0.00;;;;;;;19.22;60.22;99330.63;4296350;33;20168;-95
2023/07/22 01:41:39;;;;;;;0.00;0.00;;;;;;;19.08;60.21;99338.72;4296436;33;20101;-95
2023/07/22 01:44:04;;;;;;;0.10;0.10;;;;;;;19.17;60.22;99338.91;4295658;33;20148;-95
2023/07/22 01:46:30;;;;;;;0.00;0.00;;;;;;;19.17;60.22;99340.69;4295992;33;20103;-94
2023/07/22 01:48:55;;;;;;;0.40;0.37;;;;;;;19.12;60.22;99343.66;4308012;33;20474;-95
2023/07/22 01:51:21;;;;;;;0.70;0.70;;;;;;;19.07;60.21;99350.22;4295984;33;20158;-95
2023/07/22 01:53:46;;;;;;;0.17;0.17;;;;;;;19.05;60.21;99360.87;4295537;33;20120;-95
2023/07/22 01:56:12;;;;;;;0.32;0.32;;;;;;;19.06;60.21;99367.84;4295762;33;20147;-95
2023/07/22 01:58:37;;;;;;;0.10;0.10;;;;;;;19.03;60.22;99360.16;4295912;33;20144;-96
2023/07/22 02:01:02;;;;;;;0.00;0.00;;;;;;;19.16;60.22;99363.56;4295991;33;20111;-95
2023/07/22 02:03:28;;;;;;;0.10;0.10;;;;;;;19.41;60.24;99364.44;4295811;33;20434;-94
2023/07/22 02:05:54;;;;;;;0.25;0.25;;;;;;;19.02;60.22;99371.66;4295478;33;20116;-95
2023/07/22 02:08:19;;;;;;;2.15;0.73;;;;;;;18.95;60.21;99371.28;4296010;33;20506;-94
2023/07/22 02:10:45;;;;;;;0.13;0.08;;;;;;;19.09;60.21;99374.69;4295605;33;20126;-95
2023/07/22 02:13:11;;;;;;;0.50;0.32;;;;;;;19.15;60.21;99379.53;4295712;33;20112;-95
2023/07/22 02:15:36;;;;;;;1.08;0.43;;;;;;;19.08;60.21;99384.41;4296067;33;20099;-94
2023/07/22 02:18:02;;;;;;;0.20;0.20;;;;;;;19.01;60.21;99383.19;4283876;33;20182;-95
2023/07/22 02:20:28;;;;;;;0.08;0.08;;;;;;;18.90;60.21;99383.94;4295874;33;20100;-95
2023/07/22 02:22:54;;;;;;;0.10;0.10;;;;;;;18.96;60.21;99388.78;4295917;33;20096;-95
2023/07/22 02:25:20;;;;;;;0.22;0.22;;;;;;;19.05;60.21;99400.47;4295963;33;20167;-94
2023/07/22 02:27:46;;;;;;;1.55;1.05;;;;;;;18.92;60.20;99399.66;4295552;33;20143;-93
2023/07/22 02:30:11;;;;;;;0.45;0.45;;;;;;;19.08;60.21;99391.47;4296092;33;20122;-95
2023/07/22 02:32:38;;;;;;;5.35;0.93;;;;;;;18.86;60.21;99392.19;4295598;33;20160;-95
2023/07/22 02:35:06;;;;;;;0.10;0.10;;;;;;;18.82;60.20;99388.09;4295585;33;20107;-95
2023/07/22 02:37:32;;;;;;;0.25;0.15;;;;;;;18.95;60.21;99383.63;4295812;33;20099;-95
2023/07/22 02:39:58;;;;;;;0.28;0.10;;;;;;;18.83;60.20;99385.34;4295584;33;20383;-96
2023/07/22 02:42:23;;;;;;;0.00;0.00;;;;;;;19.06;60.21;99388.97;4295041;33;20134;-95
2023/07/22 02:44:49;;;;;;;0.55;0.55;;;;;;;18.96;60.21;99399.34;4295778;33;20107;-94
2023/07/22 02:47:14;;;;;;;0.10;0.10;;;;;;;19.05;60.21;99397.81;4295450;33;20104;-95
2023/07/22 02:49:39;;;;;;;0.32;0.32;;;;;;;18.92;60.21;99408.41;4295318;33;20096;-95
2023/07/22 02:52:06;;;;;;;0.00;0.00;;;;;;;19.10;60.21;99400.13;4295622;33;20151;-95
2023/07/22 02:54:32;;;;;;;1.60;0.45;;;;;;;18.99;60.20;99409.66;4295889;33;20142;-95
2023/07/22 02:56:57;;;;;;;0.13;0.13;;;;;;;18.93;60.21;99401.38;4296204;33;20096;-95
2023/07/22 02:59:24;;;;;;;2.03;0.32;;;;;;;19.23;60.22;99400.94;4308888;33;20096;-95
2023/07/22 03:01:49;;;;;;;0.30;0.30;;;;;;;19.21;60.22;99406.31;4301924;33;20147;-95
2023/07/22 03:04:15;;;;;;;0.00;0.00;;;;;;;19.13;60.21;99419.19;4295522;33;20457;-96
2023/07/22 03:06:42;;;;;;;0.20;0.20;;;;;;;18.91;60.20;99416.44;4295713;33;20114;-96
2023/07/22 03:09:07;;;;;;;0.10;0.10;;;;;;;19.01;60.22;99422.75;4295739;33;20159;-95
2023/07/22 03:11:34;;;;;;;2.12;0.60;;;;;;;19.12;60.21;99422.81;4283611;33;20425;-95
2023/07/22 03:13:59;;;;;;;1.17;0.68;;;;;;;18.99;60.21;99424.66;4295454;33;20160;-95
2023/07/22 03:16:25;;;;;;;0.43;0.43;;;;;;;18.88;60.21;99421.91;4295336;33;20104;-95
2023/07/22 03:18:50;;;;;;;1.12;0.52;;;;;;;19.18;60.22;99408.34;4295379;33;20127;-95
2023/07/22 03:21:16;;;;;;;0.00;0.00;;;;;;;19.04;60.21;99416.41;4295469;33;20205;-96
2023/07/22 03:23:41;;;;;;;0.60;0.60;;;;;;;18.91;60.20;99421.69;4295307;33;20115;-95
2023/07/22 03:26:07;;;;;;;0.13;0.10;;;;;;;19.02;60.21;99416.50;4295137;33;20118;-95
2023/07/22 03:28:32;;;;;;;0.22;0.08;;;;;;;19.05;60.21;99420.72;4295504;33;20138;-95
2023/07/22 03:30:58;;;;;;;6.22;0.40;;;;;;;19.08;60.21;99418.69;4295031;33;20120;-95
2023/07/22 03:33:24;;;;;;;0.15;0.15;;;;;;;19.08;60.21;99421.34;4295016;33;20103;-96
2023/07/22 03:35:49;;;;;;;0.03;0.03;;;;;;;19.42;60.23;99421.53;4307452;33;20106;-94
2023/07/22 03:38:14;;;;;;;0.13;0.13;;;;;;;19.22;60.22;99425.62;4295022;33;20134;-95
2023/07/22 03:40:40;;;;;;;0.00;0.00;;;;;;;19.38;60.22;99420.06;4295116;33;20107;-95
2023/07/22 03:43:05;;;;;;;0.15;0.15;;;;;;;19.51;60.23;99423.50;4295169;33;20115;-95
2023/07/22 03:45:31;;;;;;;2.40;0.70;;;;;;;19.56;60.24;99422.22;4295245;33;20120;-94
2023/07/22 03:47:57;;;;;;;0.57;0.37;;;;;;;19.70;60.25;99429.13;4294982;33;20096;-96
2023/07/22 03:50:23;;;;;;;0.00;0.00;;;;;;;19.58;60.24;99427.38;4283313;33;20196;-94
2023/07/22 03:52:48;;;;;;;0.10;0.10;;;;;;;19.61;60.23;99429.78;4307233;33;20112;-96
2023/07/22 03:55:14;;;;;;;0.22;0.22;;;;;;;19.47;60.24;99429.97;4293911;33;20474;-95
2023/07/22 03:57:39;;;;;;;21.70;0.80;;;;;;;19.34;60.23;99435.28;4307327;33;20386;-95
2023/07/22 04:00:09;;;;;;;0.10;0.10;;;;;;;19.32;60.23;99442.47;4282918;33;20177;-95
2023/07/22 04:02:34;;;;;;;0.22;0.20;;;;;;;19.37;60.23;99448.25;4295427;33;20130;-96
2023/07/22 04:04:59;;;;;;;0.00;0.00;;;;;;;19.27;60.22;99440.16;4294893;33;20482;-95
2023/07/22 04:07:25;;;;;;;0.32;0.32;;;;;;;19.42;60.23;99438.22;4294752;33;20100;-96
2023/07/22 04:09:50;;;;;;;0.85;0.73;;;;;;;19.81;60.25;99433.59;4294489;33;20151;-95
2023/07/22 04:12:16;;;;;;;0.45;0.45;;;;;;;19.77;60.25;99432.13;4294614;33;20136;-95
2023/07/22 04:14:42;;;;;;;0.03;0.03;;;;;;;19.75;60.25;99431.41;4294609;33;20489;-95
2023/07/22 04:17:08;;;;;;;0.20;0.20;;;;;;;19.81;60.25;99431.78;4294510;33;20112;-96
2023/07/22 04:19:34;;;;;;;0.10;0.10;;;;;;;20.05;60.26;99425.59;4295102;33;20108;-95
2023/07/22 04:22:03;;;;;;;4.95;0.35;;;;;;;19.85;60.26;99427.97;4295080;33;20145;-95
2023/07/22 04:24:31;;;;;;;0.00;0.00;;;;;;;20.05;60.27;99420.31;4300610;33;20088;-95
2023/07/22 04:26:56;;;;;;;0.10;0.10;;;;;;;20.07;60.26;99419.25;4307306;33;20112;-95
2023/07/22 04:29:21;;;;;;;0.73;0.62;;;;;;;20.20;60.27;99419.16;4298858;33;20474;-95
2023/07/22 04:31:47;;;;;;;0.88;0.55;;;;;;;20.18;60.28;99423.72;4294524;33;20391;-96
2023/07/22 04:34:12;;;;;;;3.42;1.00;;;;;;;20.30;60.28;99425.41;4294114;33;20123;-95
2023/07/22 04:36:38;;;;;;;0.43;0.43;;;;;;;20.36;60.28;99427.59;4294402;33;20116;-95
2023/07/22 04:39:07;;;;;;;0.37;0.15;;;;;;;20.38;60.27;99427.47;4294496;33;20115;-95
2023/07/22 04:41:33;;;;;;;0.00;0.00;;;;;;;20.46;60.28;99433.03;4294974;33;20096;-95
2023/07/22 04:43:59;;;;;;;0.32;0.32;;;;;;;20.66;60.30;99428.84;4306487;33;20762;-96
2023/07/22 04:46:25;;;;;;;0.10;0.10;;;;;;;20.80;60.30;99432.06;4294285;33;20123;-95
2023/07/22 04:48:55;;;;;;;0.35;0.35;;;;;;;20.95;60.31;99440.59;4294528;33;20127;-96
2023/07/22 04:51:20;;;;;;;0.73;0.73;;;;;;;20.72;60.30;99438.94;4294630;33;20116;-95
2023/07/22 04:53:46;;;;;;;0.00;0.00;;;;;;;21.05;60.31;99438.88;4293982;33;20122;-94
2023/07/22 04:56:11;;;;;;;0.77;0.77;;;;;;;20.96;60.31;99444.91;4294720;33;20152;-95
2023/07/22 04:58:37;;;;;;;0.13;0.13;;;;;;;20.96;60.31;99439.63;4294250;33;20367;-96
2023/07/22 05:01:02;;;;;;;0.17;0.17;;;;;;;21.05;60.31;99444.19;4294157;33;20535;-95
2023/07/22 05:03:28;;;;;;;0.60;0.60;;;;;;;20.97;60.31;99446.59;4294299;33;20096;-95
2023/07/22 05:05:53;;;;;;;0.17;0.17;;;;;;;21.05;60.31;99454.75;4295114;33;20135;-95
2023/07/22 05:08:21;;;;;;;0.30;0.30;;;;;;;21.12;60.32;99450.69;4296394;33;20489;-95
2023/07/22 05:10:49;;;;;;;0.35;0.35;;;;;;;21.12;60.32;99445.37;4296334;33;20094;-96
2023/07/22 05:13:18;;;;;;;0.77;0.77;;;;;;;21.21;60.32;99449.09;4308571;33;20117;-96
2023/07/22 05:15:46;;;;;;;0.65;0.65;;;;;;;21.13;60.32;99452.37;4308275;33;20112;-96
2023/07/22 05:18:12;;;;;;;0.60;0.60;;;;;;;21.22;60.32;99456.06;4296843;33;20140;-95
2023/07/22 05:20:39;;;;;;;0.20;0.20;;;;;;;21.12;60.32;99455.97;4296295;33;20111;-95
2023/07/22 05:23:07;;;;;;;0.00;0.00;;;;;;;21.04;60.32;99452.25;4308518;33;20118;-95
2023/07/22 05:25:33;;;;;;;0.20;0.20;;;;;;;21.13;60.32;99451.53;4308297;33;20064;-96
2023/07/22 05:28:00;;;;;;;0.20;0.20;;;;;;;21.12;60.32;99458.63;4296442;33;20139;-96
2023/07/22 05:30:28;;;;;;;0.30;0.30;;;;;;;21.08;60.31;99465.13;4284747;33;20112;-96
2023/07/22 05:32:54;;;;;;;4.35;0.75;;;;;;;21.06;60.32;99464.41;4296150;33;20108;-95
2023/07/22 05:35:19;;;;;;;1.17;0.77;;;;;;;21.15;60.31;99468.13;4296316;33;20430;-95
2023/07/22 05:37:47;;;;;;;0.10;0.10;;;;;;;21.18;60.33;99467.87;4296195;33;20120;-96
2023/07/22 05:40:13;;;;;;;0.10;0.10;;;;;;;21.24;60.32;99471.84;4296461;33;20675;-96
2023/07/22 05:42:38;;;;;;;0.10;0.10;;;;;;;21.21;60.33;99474.72;4295844;33;20117;-94
2023/07/22 05:45:04;;;;;;;0.15;0.15;;;;;;;21.26;60.33;99465.47;4295833;33;20140;-94
2023/07/22 05:47:29;;;;;;;0.80;0.57;;;;;;;21.24;60.33;99470.03;4295844;33;20138;-96
2023/07/22 05:49:55;;;;;;;0.10;0.10;;;;;;;21.28;60.32;99475.94;4295979;33;20163;-94
2023/07/22 05:52:20;;;;;;;0.08;0.08;;;;;;;21.32;60.33;99472.09;4297941;33;20060;-95
2023/07/22 05:54:46;;;;;;;0.00;0.00;;;;;;;21.28;60.32;99481.22;4308076;33;20465;-94
2023/07/22 05:57:14;;;;;;;0.00;0.00;;;;;;;21.17;60.32;99483.88;4299457;33;20100;-95
2023/07/22 05:59:40;;;;;;;0.25;0.25;;;;;;;20.97;60.31;99496.88;4284388;33;20748;-95
2023/07/22 06:02:06;;;;;;;0.55;0.55;;;;;;;21.13;60.32;99494.72;4295730;33;20139;-95
2023/07/22 06:04:31;;;;;;;0.28;0.28;;;;;;;21.29;60.33;99490.84;4295998;33;20130;-96
2023/07/22 06:06:57;;;;;;;0.10;0.10;;;;;;;21.48;60.33;99490.22;4295544;33;20447;-94
2023/07/22 06:09:25;;;;;;;0.00;0.00;;;;;;;21.68;60.35;99492.91;4295611;33;20158;-93
2023/07/22 06:11:50;;;;;;;0.35;0.35;;;;;;;21.90;60.36;99492.00;4295794;33;20099;-95
2023/07/22 06:14:19;;;;;;;0.00;0.00;;;;;;;21.91;60.36;99491.03;4295373;33;20131;-94
2023/07/22 06:16:44;;;;;;;0.10;0.10;;;;;;;21.90;60.36;99493.81;4295878;33;20131;-95
2023/07/22 06:19:18;;;;;;;0.03;0.03;;;;;;;21.84;60.36;99483.72;4294977;33;20108;-95
2023/07/22 06:21:54;;;;;;;0.30;0.28;;;;;;;21.74;60.35;99488.91;4295497;33;20174;-95
2023/07/22 06:24:29;;;;;;;0.15;0.15;;;;;;;21.87;60.35;99484.31;4295659;33;20104;-96
2023/07/22 06:26:55;;;;;;;0.08;0.08;;;;;;;21.98;60.36;99484.25;4295614;33;20104;-94
2023/07/22 06:29:25;;;;;;;0.55;0.50;;;;;;;21.95;60.35;99486.31;4295488;33;20100;-94
2023/07/22 06:31:50;;;;;;;;;;;;;;;21.99;60.36;99491.22;4296051;33;20117;-95
2023/07/22 06:34:25;;;;;;;1.17;0.75;;;;;;;22.11;60.37;99489.41;4307261;33;19975;-95
2023/07/22 06:36:54;;;;;;;0.10;0.10;;;;;;;22.32;60.37;99489.41;4295705;33;20232;-94
2023/07/22 06:39:22;;;;;;;0.43;0.43;;;;;;;22.51;60.40;99494.00;4295384;33;20142;-95
2023/07/22 06:42:00;;;;;;;0.30;0.30;;;;;;;22.62;60.39;99499.22;4295307;33;20100;-94
2023/07/22 06:44:25;;;;;;;0.37;0.37;;;;;;;22.70;60.40;99494.06;4307043;33;20103;-94
2023/07/22 06:46:51;;;;;;;0.08;0.08;;;;;;;22.83;60.41;99504.50;4283145;33;20520;-94
2023/07/22 06:49:17;;;;;;;0.55;0.55;;;;;;;22.95;60.41;99504.31;4307157;33;20149;-94
2023/07/22 06:51:42;;;;;;;0.00;0.00;;;;;;;23.05;60.43;99490.22;4295094;33;20181;-93
2023/07/22 06:54:07;;;;;;;0.57;0.57;;;;;;;23.08;60.42;99497.91;4294966;33;20139;-93
2023/07/22 06:56:33;;;;;;;0.10;0.10;;;;;;;23.11;60.42;99495.81;4295022;33;20104;-94
2023/07/22 06:58:58;;;;;;;0.00;0.00;;;;;;;23.17;60.43;99489.13;4294966;33;20120;-94
2023/07/22 07:01:26;;;;;;;0.00;0.00;;;;;;;23.33;60.43;99494.75;4295000;33;20442;-94
2023/07/22 07:03:52;;;;;;;0.20;0.05;;;;;;;23.34;60.43;99501.75;4295333;33;20468;-93
2023/07/22 07:06:20;;;;;;;0.15;0.15;;;;;;;23.22;60.43;99506.34;4295078;33;20108;-93
2023/07/22 07:08:46;;;;;;;0.00;0.00;;;;;;;23.26;60.42;99514.88;4294838;33;20116;-94
2023/07/22 07:11:11;;;;;;;0.17;0.05;;;;;;;23.32;60.43;99509.03;4294683;33;20150;-94
2023/07/22 07:13:37;;;;;;;0.10;0.10;;;;;;;23.39;60.43;99507.50;4294208;33;20126;-93
2023/07/22 07:16:27;;;;;;;0.55;0.55;;;;;;;23.54;60.44;99514.09;4294858;33;20163;-93
2023/07/22 07:18:53;;;;;;;0.00;0.00;;;;;;;23.56;60.45;99509.53;4303332;33;20171;-94
2023/07/22 07:21:19;;;;;;;1.10;0.75;;;;;;;23.64;60.45;99510.66;4299123;33;20151;-90
2023/07/22 07:23:44;;;;;;;0.08;0.08;;;;;;;23.63;60.45;99509.81;4302440;33;20101;-93
2023/07/22 07:26:10;;;;;;;3.03;0.85;;;;;;;23.84;60.46;99509.69;4295090;33;20120;-93
2023/07/22 07:28:35;;;;;;;0.55;0.32;;;;;;;23.94;60.47;99517.69;4306030;33;20112;-93
2023/07/22 07:31:00;;;;;;;1.95;1.27;;;;;;;23.91;60.47;99516.16;4294363;33;20171;-93
2023/07/22 07:33:26;;;;;;;0.32;0.25;;;;;;;23.82;60.47;99530.25;4290598;33;109119;-93
2023/07/22 07:35:51;;;;;;;0.25;0.10;;;;;;;23.85;60.46;99532.62;4294470;33;20142;-94
2023/07/22 07:38:17;;;;;;;0.25;0.25;;;;;;;24.12;60.47;99529.28;4282342;33;20142;-94
2023/07/22 07:40:42;;;;;;;0.13;0.13;;;;;;;24.13;60.48;99531.81;4294314;33;20099;-94
2023/07/22 07:43:08;;;;;;;0.80;0.20;;;;;;;24.16;60.48;99534.19;4294491;33;20227;-93
2023/07/22 07:45:33;;;;;;;0.00;0.00;;;;;;;24.09;60.47;99533.06;4294071;33;20138;-93
2023/07/22 07:47:59;;;;;;;0.17;0.17;;;;;;;24.27;60.48;99543.84;4293921;33;20112;-94
2023/07/22 07:50:24;;;;;;;0.15;0.15;;;;;;;24.34;60.49;99544.97;4293920;33;20108;-93
2023/07/22 07:52:49;;;;;;;0.32;0.32;;;;;;;24.43;60.49;99564.59;4306346;33;20135;-93
2023/07/22 07:55:15;;;;;;;0.28;0.10;;;;;;;24.38;60.49;99564.19;4294219;33;20142;-92
2023/07/22 07:57:40;;;;;;;0.77;0.57;;;;;;;24.48;60.49;99565.00;4293797;33;20111;-93
2023/07/22 08:00:08;;;;;;;0.28;0.28;;;;;;;24.69;60.50;99565.66;4293974;33;20092;-92
2023/07/22 08:02:35;;;;;;;0.03;0.03;;;;;;;24.60;60.50;99560.34;4294209;33;20138;-92
2023/07/22 08:05:00;;;;;;;0.10;0.10;;;;;;;24.62;60.50;99563.72;4293641;33;20120;-92
2023/07/22 08:07:26;;;;;;;0.00;0.00;;;;;;;24.61;60.51;99568.22;4293684;33;20155;-92
2023/07/22 08:09:52;;;;;;;0.40;0.40;;;;;;;24.57;60.50;99566.78;4293800;33;20092;-93
2023/07/22 08:12:18;;;;;;;0.85;0.77;;;;;;;24.69;60.51;99578.97;4305618;33;20090;-93
2023/07/22 08:14:43;;;;;;;0.10;0.10;;;;;;;24.95;60.52;99575.69;4293817;33;20164;-92
2023/07/22 08:17:09;;;;;;;0.08;0.08;;;;;;;25.27;60.53;99589.47;4281840;33;20116;-93
2023/07/22 08:19:34;;;;;;;5.10;0.75;;;;;;;25.16;60.54;99596.81;4293636;33;20339;-93
2023/07/22 08:22:00;;;;;;;0.35;0.35;;;;;;;25.28;60.54;99593.81;4293624;33;20223;-92
2023/07/22 08:24:25;;;;;;;0.15;0.15;;;;;;;25.35;60.54;99596.75;4293511;33;20462;-93
2023/07/22 08:26:51;;;;;;;0.00;0.00;;;;;;;25.31;60.54;99596.16;4293764;33;20127;-94
2023/07/22 08:29:16;;;;;;;0.20;0.15;;;;;;;25.49;60.55;99601.56;4293556;33;20152;-92
2023/07/22 08:31:42;;;;;;;0.20;0.20;;;;;;;25.53;60.55;99610.94;4293482;33;20148;-94
2023/07/22 08:34:07;;;;;;;0.00;0.00;;;;;;;25.91;60.57;99614.41;4293244;33;20175;-93
2023/07/22 08:36:33;;;;;;;0.00;0.00;;;;;;;26.20;60.58;99615.03;4293401;33;20174;-94
2023/07/22 08:38:58;;;;;;;0.10;0.10;;;;;;;26.32;60.59;99615.66;4293417;33;20096;-93
2023/07/22 08:41:25;;;;;;;0.05;0.05;;;;;;;26.10;60.58;99619.63;4294074;33;20148;-94
2023/07/22 08:43:50;;;;;;;0.20;0.20;;;;;;;26.21;60.59;99621.22;4295605;33;20116;-92
2023/07/22 08:46:16;;;;;;;0.00;0.00;;;;;;;26.30;60.59;99631.00;4295627;33;20112;-95
2023/07/22 08:48:42;;;;;;;0.35;0.22;;;;;;;26.12;60.59;99622.97;4295914;33;20377;-93
2023/07/22 08:51:16;;;;;;;0.32;0.32;;;;;;;25.97;60.57;99617.31;4306186;33;20076;-93
2023/07/22 08:53:41;;;;;;;0.10;0.10;;;;;;;26.14;60.58;99634.34;4298339;33;20521;-91
2023/07/22 08:56:07;;;;;;;0.10;0.10;;;;;;;26.40;60.59;99621.09;4295591;33;20518;-93
2023/07/22 08:58:33;;;;;;;0.00;0.00;;;;;;;26.39;60.60;99618.59;4295490;33;20148;-93
2023/07/22 09:00:58;;;;;;;0.37;0.35;;;;;;;26.52;60.61;99629.72;4295352;33;20108;-93
2023/07/22 09:03:24;;;;;;;0.30;0.30;;;;;;;26.83;60.62;99622.97;4295151;33;20146;-93
2023/07/22 09:05:50;;;;;;;0.10;0.10;;;;;;;27.01;60.62;99633.63;4295293;33;20146;-93
2023/07/22 09:08:17;;;;;;;0.20;0.20;;;;;;;27.10;60.63;99632.69;4283248;33;20108;-93
2023/07/22 09:10:42;;;;;;;0.10;0.10;;;;;;;26.90;60.62;99632.00;4295683;33;20096;-95
2023/07/22 09:13:08;;;;;;;0.10;0.10;;;;;;;26.69;60.61;99636.84;4295403;33;20138;-93
2023/07/22 09:15:37;;;;;;;5.20;0.70;;;;;;;26.73;60.62;99640.06;4295341;33;20160;-95
2023/07/22 09:18:05;;;;;;;0.15;0.15;;;;;;;26.77;60.62;99634.28;4295643;33;20160;-94
2023/07/22 09:20:31;;;;;;;0.35;0.35;;;;;;;26.61;60.60;99639.47;4295002;33;20103;-94
2023/07/22 09:22:59;;;;;;;0.20;0.20;;;;;;;26.86;60.62;99637.81;4294915;33;20458;-94
2023/07/22 09:25:26;;;;;;;1.25;0.35;;;;;;;27.08;60.63;99631.16;4295501;33;20183;-92
2023/07/22 09:27:52;;;;;;;0.30;0.30;;;;;;;27.35;60.64;99632.81;4295226;33;20100;-94
2023/07/22 09:30:28;;;;;;;0.50;0.50;;;;;;;27.56;60.65;99633.25;4283133;33;20743;-95
2023/07/22 09:32:55;;;;;;;0.20;0.20;;;;;;;27.69;60.66;99631.03;4295440;33;20138;-92
2023/07/22 09:35:21;;;;;;;0.80;0.30;;;;;;;27.80;60.67;99635.22;4283520;33;20130;-92
2023/07/22 09:37:46;;;;;;;0.10;0.10;;;;;;;27.68;60.67;99637.38;4295334;33;20144;-93
2023/07/22 09:40:26;;;;;;;0.10;0.10;;;;;;;27.44;60.66;99626.50;4295196;33;20104;-94
2023/07/22 09:42:54;;;;;;;0.15;0.13;;;;;;;27.54;60.66;99635.25;4297077;33;20107;-94
2023/07/22 09:45:22;;;;;;;0.65;0.55;;;;;;;27.67;60.67;99641.00;4294994;33;20154;-94
2023/07/22 09:47:49;;;;;;;0.52;0.40;;;;;;;27.60;60.67;99620.41;4283214;33;20088;-94
2023/07/22 09:50:25;;;;;;;0.25;0.25;;;;;;;27.65;60.67;99626.13;4295161;33;20104;-94
2023/07/22 09:52:52;;;;;;;0.00;0.00;;;;;;;27.61;60.66;99622.91;4295220;33;20112;-94
2023/07/22 09:55:19;;;;;;;0.10;0.10;;;;;;;27.67;60.67;99622.28;4295128;33;20108;-94
2023/07/22 09:58:05;;;;;;;0.25;0.25;;;;;;;27.63;60.66;99623.62;4295134;33;20152;-94
2023/07/22 10:00:34;;;;;;;0.00;0.00;;;;;;;27.65;60.67;99626.97;4319103;33;20119;-93
2023/07/22 10:03:02;;;;;;;0.10;0.10;;;;;;;27.53;60.66;99631.75;4295296;33;20135;-93
2023/07/22 10:05:28;;;;;;;0.10;0.10;;;;;;;27.49;60.66;99632.22;4295259;33;21122;-94
2023/07/22 10:07:58;;;;;;;0.20;0.20;;;;;;;27.52;60.66;99637.25;4295443;33;20096;-93
2023/07/22 10:10:33;;;;;;;0.22;0.22;;;;;;;27.45;60.66;99636.22;4294839;33;20104;-93
2023/07/22 10:12:59;;;;;;;0.10;0.10;;;;;;;27.63;60.67;99634.31;4294768;33;20738;-93
2023/07/22 10:15:25;;;;;;;0.75;0.47;;;;;;;27.75;60.68;99634.87;4295166;33;20139;-94
2023/07/22 10:17:51;;;;;;;0.10;0.10;;;;;;;27.75;60.68;99635.72;4296512;33;20091;-94
2023/07/22 10:20:16;;;;;;;0.00;0.00;;;;;;;27.55;60.66;99642.28;4303442;33;20456;-94
2023/07/22 10:22:43;;;;;;;1.12;0.75;;;;;;;27.51;60.67;99644.44;4296794;33;20168;-94
2023/07/22 10:25:08;;;;;;;0.65;0.43;;;;;;;27.66;60.68;99647.34;4282954;33;20107;-93
2023/07/22 10:27:35;;;;;;;0.65;0.40;;;;;;;27.77;60.67;99654.28;4294711;33;20122;-93
2023/07/22 10:30:01;;;;;;;0.00;0.00;;;;;;;27.84;60.68;99644.59;4294926;33;20470;-92
2023/07/22 10:32:34;;;;;;;0.45;0.32;;;;;;;27.81;60.67;99642.25;4294549;33;20172;-92
2023/07/22 10:35:01;;;;;;;0.10;0.10;;;;;;;27.65;60.67;99645.69;4282540;33;20116;-93
2023/07/22 10:37:33;;;;;;;0.43;0.43;;;;;;;27.97;60.68;99639.62;4294695;33;20107;-92
2023/07/22 10:40:18;;;;;;;0.00;0.00;;;;;;;28.21;60.71;99646.88;4294401;33;20096;-91
2023/07/22 10:42:51;;;;;;;0.00;0.00;;;;;;;28.29;60.71;99638.03;4282922;33;20138;-92
2023/07/22 10:45:30;;;;;;;0.00;0.00;;;;;;;28.32;60.70;99635.03;4294754;33;20243;-92
2023/07/22 10:48:06;;;;;;;0.20;0.08;;;;;;;28.37;60.71;99635.37;4294466;33;20118;-92
2023/07/22 10:50:42;;;;;;;0.22;0.22;;;;;;;28.50;60.71;99618.81;4307010;33;20519;-92
2023/07/22 10:53:30;;;;;;;0.65;0.65;;;;;;;28.73;60.72;99617.12;4306383;33;20131;-91
2023/07/22 10:56:14;;;;;;;0.00;0.00;;;;;;;28.54;60.72;99620.16;4308976;33;20131;-89
2023/07/22 10:58:46;;;;;;;0.00;0.00;;;;;;;28.35;60.71;99619.47;4295162;33;20348;-91
2023/07/22 11:01:27;;;;;;;0.00;0.00;;;;;;;28.17;60.70;99628.63;4318512;33;20122;-92
2023/07/22 11:04:17;;;;;;;0.00;0.00;;;;;;;28.24;60.71;99621.63;4318123;33;20112;-91
2023/07/22 11:06:48;;;;;;;;;;;;;;;28.45;60.72;99611.28;4320039;33;20100;-92
2023/07/22 11:09:26;;;;;;;0.70;0.43;;;;;;;28.70;60.73;99609.44;4318383;33;19979;-90
2023/07/22 11:11:53;;;;;;;0.00;0.00;;;;;;;28.76;60.73;99613.28;4319773;33;20092;-91
2023/07/22 11:14:20;;;;;;;0.00;0.00;;;;;;;28.83;60.73;99604.37;4294243;33;20120;-91
2023/07/22 11:16:46;;;;;;;0.00;0.00;;;;;;;28.87;60.74;99602.28;4294433;33;20183;-91
2023/07/22 11:19:16;;;;;;;0.20;0.20;;;;;;;29.00;60.75;99606.06;4294253;33;20088;-91
2023/07/22 11:21:42;;;;;;;0.00;0.00;;;;;;;29.00;60.75;99613.28;4294277;33;20096;-90
2023/07/22 11:24:07;;;;;;;0.03;0.03;;;;;;;28.89;60.74;99606.44;4294240;33;20154;-91
2023/07/22 11:26:33;;;;;;;0.10;0.10;;;;;;;28.93;60.73;99610.44;4306431;33;20165;-90
2023/07/22 11:29:03;;;;;;;0.00;0.00;;;;;;;29.04;60.75;99606.56;4306506;33;20438;-92
2023/07/22 11:31:45;;;;;;;0.00;0.00;;;;;;;28.93;60.73;99607.78;4294230;33;20163;-90
2023/07/22 11:34:11;;;;;;;0.00;0.00;;;;;;;29.00;60.75;99603.41;4296031;33;20378;-90